Destinations Copenhagen Kastrup Airport

Copenhagen Kastrup Airport (EKCH / CPH)

Flights to Copenhagen Kastrup Airport

Flight number From ETE Dispatch
SPY-2264 EGFF Cardiff International Airport 02:05
SPY-2404 EGPH Edinburgh Airport 02:05
SPY-306 EHGG Groningen Airport Eelde 01:20

Flights from Copenhagen Kastrup Airport

Flight number To ETE Dispatch
SPY-2265 EGFF Cardiff International Airport 02:05
SPY-2405 EGPH Edinburgh Airport 02:05
SPY-307 EHGG Groningen Airport Eelde
About

Copenhagen Kastrup Airport facts

Copenhagen Kastrup Airport is located in Copenhagen at an elevation of 5.2 meters or 17 feet.

Currently, Speedy Airlines serves 6 flights to and from Copenhagen Kastrup Airport.

Detailed airport info

Route map

Weather

Current weather

METAR

METAR

Metar data retrieved Sunday, 21 July 2024 at 20:25 UTC

EKCH 211950Z AUTO 13007KT 9999 NCD 20/15 Q1010 NOSIG
Wind Temperature
7 kt 20c